createdAt,value
2018-09-29T00:00:02.156Z,42.66
2018-09-29T00:02:31.239Z,42.58
2018-09-29T00:05:00.324Z,42.58
2018-09-29T00:07:29.411Z,42.70
2018-09-29T00:09:58.542Z,42.57
2018-09-29T00:12:27.620Z,42.47
2018-09-29T00:14:56.716Z,42.56
2018-09-29T00:17:25.828Z,42.37
2018-09-29T00:19:54.905Z,42.57
2018-09-29T00:22:24.307Z,42.73
2018-09-29T00:24:53.507Z,42.96
2018-09-29T00:27:22.624Z,42.55
2018-09-29T00:29:51.704Z,42.93
2018-09-29T00:32:20.791Z,42.53
2018-09-29T00:34:49.875Z,42.68
2018-09-29T00:37:19.125Z,42.64
2018-09-29T00:39:48.159Z,43.05
2018-09-29T00:42:17.335Z,42.69
2018-09-29T00:44:46.476Z,42.70
2018-09-29T00:47:15.567Z,42.85
2018-09-29T00:49:44.679Z,42.96
2018-09-29T00:52:14.222Z,42.80
2018-09-29T00:54:43.287Z,42.76
2018-09-29T00:57:12.364Z,42.79
2018-09-29T00:59:41.487Z,43.27
2018-09-29T01:02:10.671Z,43.14
2018-09-29T01:04:39.788Z,42.77
2018-09-29T01:07:08.833Z,42.84
2018-09-29T01:09:37.899Z,43.08
2018-09-29T01:12:06.947Z,42.93
2018-09-29T01:14:36.197Z,43.25
2018-09-29T01:17:05.277Z,42.80
2018-09-29T01:19:34.419Z,43.22
2018-09-29T01:22:03.539Z,42.81
2018-09-29T01:24:32.691Z,43.17
2018-09-29T01:27:01.826Z,43.04
2018-09-29T01:29:30.906Z,42.80
2018-09-29T01:31:59.996Z,42.92
2018-09-29T01:34:29.427Z,43.16
2018-09-29T01:36:58.524Z,42.91
2018-09-29T01:39:27.636Z,42.98
2018-09-29T01:41:56.799Z,43.02
2018-09-29T01:44:25.851Z,42.66
2018-09-29T01:46:55.003Z,42.75
2018-09-29T01:49:24.063Z,42.51
2018-09-29T01:51:53.197Z,42.84
2018-09-29T01:54:22.300Z,43.04
2018-09-29T01:56:51.379Z,42.99
2018-09-29T01:59:20.470Z,42.75
2018-09-29T02:01:49.564Z,42.83
2018-09-29T02:04:18.697Z,43.05
2018-09-29T02:06:47.763Z,42.63
2018-09-29T02:09:18.433Z,42.72
2018-09-29T02:11:47.497Z,42.92
2018-09-29T02:14:16.613Z,42.51
2018-09-29T02:16:45.683Z,42.70
2018-09-29T02:19:14.742Z,42.64
2018-09-29T02:21:43.813Z,42.36
2018-09-29T02:24:12.999Z,42.82
2018-09-29T02:26:42.071Z,42.88
2018-09-29T02:29:11.191Z,42.90
2018-09-29T02:31:40.204Z,42.63
2018-09-29T02:34:09.360Z,42.53
2018-09-29T02:36:38.515Z,42.57
2018-09-29T02:39:10.183Z,42.87
2018-09-29T02:41:39.680Z,43.02
2018-09-29T02:44:09.199Z,42.63
2018-09-29T02:46:38.445Z,42.77
2018-09-29T02:49:07.505Z,42.57
2018-09-29T02:51:36.588Z,42.67
2018-09-29T02:54:05.867Z,42.84
2018-09-29T02:56:34.999Z,42.98
2018-09-29T02:59:04.097Z,42.92
2018-09-29T03:01:33.224Z,43.11
2018-09-29T03:04:02.299Z,42.80
2018-09-29T03:06:31.395Z,43.06
2018-09-29T03:09:00.465Z,43.35
2018-09-29T03:11:29.519Z,43.43
2018-09-29T03:13:58.667Z,43.08
2018-09-29T03:16:27.738Z,43.44
2018-09-29T03:18:56.879Z,43.19
2018-09-29T03:21:26.104Z,43.22
2018-09-29T03:23:55.177Z,43.07
2018-09-29T03:26:24.252Z,43.36
2018-09-29T03:28:53.357Z,43.11
2018-09-29T03:31:22.567Z,43.12
2018-09-29T03:33:51.756Z,43.30
2018-09-29T03:36:20.839Z,43.50
2018-09-29T03:38:49.939Z,43.45
2018-09-29T03:41:19.066Z,43.54
2018-09-29T03:43:48.166Z,43.19
2018-09-29T03:46:17.536Z,43.29
2018-09-29T03:48:46.626Z,43.63
2018-09-29T03:51:15.724Z,43.42
2018-09-29T03:53:44.906Z,43.76
2018-09-29T03:56:14.300Z,43.80
2018-09-29T03:58:43.614Z,43.41
2018-09-29T04:01:12.696Z,43.84
2018-09-29T04:03:41.824Z,43.72
2018-09-29T04:06:10.928Z,43.58
2018-09-29T04:08:40.024Z,43.51
2018-09-29T04:11:09.168Z,43.47
2018-09-29T04:13:38.479Z,43.50
2018-09-29T04:16:07.613Z,43.67
2018-09-29T04:18:36.883Z,43.51
2018-09-29T04:21:06.004Z,43.56
2018-09-29T04:23:35.125Z,43.40
2018-09-29T04:26:04.192Z,43.41
2018-09-29T04:28:33.296Z,43.55
2018-09-29T04:31:02.389Z,43.42
2018-09-29T04:33:31.445Z,43.47
2018-09-29T04:36:00.576Z,43.28
2018-09-29T04:38:29.683Z,43.50
2018-09-29T04:40:58.795Z,43.64
2018-09-29T04:43:28.183Z,43.54
2018-09-29T04:45:57.267Z,43.12
2018-09-29T04:48:26.372Z,43.24
2018-09-29T04:50:55.600Z,43.24
2018-09-29T04:53:24.668Z,43.35
2018-09-29T04:55:53.759Z,43.11
2018-09-29T04:58:22.831Z,43.22
2018-09-29T05:00:51.925Z,43.33
2018-09-29T05:03:20.992Z,43.10
2018-09-29T05:05:50.072Z,43.07
2018-09-29T05:08:19.275Z,43.37
2018-09-29T05:10:48.372Z,43.05
2018-09-29T05:13:17.696Z,43.21
2018-09-29T05:15:47.243Z,43.04
2018-09-29T05:18:16.512Z,42.84
2018-09-29T05:20:45.879Z,42.61
2018-09-29T05:23:15.051Z,42.58
2018-09-29T05:25:44.236Z,42.50
2018-09-29T05:28:13.360Z,42.33
2018-09-29T05:30:42.473Z,42.24
2018-09-29T05:33:11.838Z,42.22
2018-09-29T05:35:40.930Z,42.39
2018-09-29T05:38:10.038Z,42.57
2018-09-29T05:40:39.227Z,42.56
2018-09-29T05:43:08.320Z,42.42
2018-09-29T05:45:37.442Z,42.49
2018-09-29T05:48:06.616Z,42.30
2018-09-29T05:50:35.740Z,42.45
2018-09-29T05:53:04.802Z,42.44
2018-09-29T05:55:33.877Z,42.44
2018-09-29T05:58:03.032Z,42.08
2018-09-29T06:00:32.185Z,42.41
2018-09-29T06:03:01.387Z,42.54
2018-09-29T06:05:30.499Z,42.39
2018-09-29T06:07:59.730Z,42.02
2018-09-29T06:10:28.794Z,42.30
2018-09-29T06:12:58.168Z,42.21
2018-09-29T06:15:27.223Z,42.25
2018-09-29T06:17:56.229Z,42.24
2018-09-29T06:20:25.301Z,42.11
2018-09-29T06:22:54.364Z,42.41
2018-09-29T06:25:23.441Z,42.04
2018-09-29T06:27:52.615Z,42.28
2018-09-29T06:30:21.964Z,42.26
2018-09-29T06:32:51.066Z,42.12
2018-09-29T06:35:20.157Z,42.61
2018-09-29T06:37:49.243Z,42.37
2018-09-29T06:40:18.339Z,42.31
2018-09-29T06:42:47.423Z,41.95
2018-09-29T06:45:16.550Z,41.64
2018-09-29T06:47:45.705Z,41.83
2018-09-29T06:50:14.972Z,41.65
2018-09-29T06:52:44.043Z,41.54
2018-09-29T06:55:13.111Z,41.55
2018-09-29T06:57:42.279Z,41.55
2018-09-29T07:00:11.375Z,41.23
2018-09-29T07:02:40.544Z,41.29
2018-09-29T07:05:09.728Z,41.47
2018-09-29T07:07:38.883Z,41.50
2018-09-29T07:10:07.995Z,41.36
2018-09-29T07:12:37.384Z,41.39
2018-09-29T07:15:07.452Z,41.37
2018-09-29T07:17:36.511Z,40.94
2018-09-29T07:20:05.753Z,41.28
2018-09-29T07:22:34.843Z,41.30
2018-09-29T07:25:03.967Z,41.44
2018-09-29T07:27:33.224Z,41.57
2018-09-29T07:30:02.348Z,42.17
2018-09-29T07:32:31.437Z,41.60
2018-09-29T07:35:00.512Z,40.48
2018-09-29T07:37:30.227Z,39.56
2018-09-29T07:39:59.306Z,39.19
2018-09-29T07:42:28.429Z,38.79
2018-09-29T07:44:57.490Z,38.01
2018-09-29T07:47:26.625Z,38.16
2018-09-29T07:49:55.700Z,37.77
2018-09-29T07:52:24.753Z,36.60
2018-09-29T07:54:53.977Z,36.63
2018-09-29T07:57:23.213Z,37.05
2018-09-29T07:59:52.315Z,37.44
2018-09-29T08:02:21.371Z,37.36
2018-09-29T08:04:50.475Z,37.91
2018-09-29T08:07:19.571Z,38.11
2018-09-29T08:09:48.660Z,38.20
2018-09-29T08:12:17.786Z,38.39
2018-09-29T08:14:47.044Z,38.54
2018-09-29T08:17:16.290Z,38.72
2018-09-29T08:19:45.387Z,38.34
2018-09-29T08:22:14.457Z,38.34
2018-09-29T08:24:43.744Z,38.67
2018-09-29T08:27:12.748Z,38.48
2018-09-29T08:29:41.842Z,38.52
2018-09-29T08:32:11.018Z,38.63
2018-09-29T08:34:40.371Z,38.19
2018-09-29T08:37:09.437Z,37.91
2018-09-29T08:39:38.558Z,38.07
2018-09-29T08:42:07.751Z,38.06
2018-09-29T08:44:36.881Z,37.98
2018-09-29T08:47:06.140Z,37.82
2018-09-29T08:49:35.210Z,38.10
2018-09-29T08:52:04.323Z,37.55
2018-09-29T08:54:33.548Z,37.45
2018-09-29T08:57:02.659Z,37.89
2018-09-29T08:59:31.983Z,37.70
2018-09-29T09:02:01.283Z,38.18
2018-09-29T09:04:30.419Z,38.37
2018-09-29T09:06:59.503Z,37.90
2018-09-29T09:09:28.720Z,37.33
2018-09-29T09:11:57.935Z,37.15
2018-09-29T09:14:27.351Z,36.90
2018-09-29T09:16:56.524Z,36.94
2018-09-29T09:19:25.615Z,37.22
2018-09-29T09:21:54.707Z,36.78
2018-09-29T09:24:23.813Z,36.92
2018-09-29T09:26:52.914Z,36.89
2018-09-29T09:29:22.133Z,36.97
2018-09-29T09:31:51.229Z,36.79
2018-09-29T09:34:20.417Z,36.58
2018-09-29T09:36:49.504Z,37.00
2018-09-29T09:39:18.583Z,37.21
2018-09-29T09:41:47.805Z,37.20
2018-09-29T09:44:16.871Z,37.47
2018-09-29T09:46:45.947Z,37.55
2018-09-29T09:49:15.025Z,37.55
2018-09-29T09:51:44.174Z,37.64
2018-09-29T09:54:13.297Z,37.39
2018-09-29T09:56:42.380Z,37.76
2018-09-29T09:59:11.697Z,37.67
2018-09-29T10:01:46.103Z,37.40
2018-09-29T10:04:15.184Z,37.09
2018-09-29T10:06:44.279Z,36.78
2018-09-29T10:09:14.007Z,37.30
2018-09-29T10:11:43.800Z,36.74
2018-09-29T10:14:12.916Z,37.05
2018-09-29T10:16:42.213Z,37.42
2018-09-29T10:19:11.312Z,37.34
2018-09-29T10:21:40.482Z,37.51
2018-09-29T10:24:09.592Z,37.27
2018-09-29T10:26:38.801Z,36.98
2018-09-29T10:29:07.893Z,37.35
2018-09-29T10:31:36.959Z,37.50
2018-09-29T10:34:06.172Z,37.27
2018-09-29T10:36:35.292Z,37.37
2018-09-29T10:39:06.821Z,37.00
2018-09-29T10:41:35.938Z,37.21
2018-09-29T10:44:05.605Z,37.30
2018-09-29T10:46:34.979Z,37.34
2018-09-29T10:49:04.388Z,37.13
2018-09-29T10:51:33.583Z,36.96
2018-09-29T10:54:02.735Z,36.71
2018-09-29T10:56:31.821Z,37.10
2018-09-29T10:59:01.210Z,36.93
2018-09-29T11:01:30.555Z,37.29
2018-09-29T11:03:59.627Z,37.47
2018-09-29T11:06:28.731Z,37.37
2018-09-29T11:08:57.819Z,37.15
2018-09-29T11:11:26.921Z,37.22
2018-09-29T11:13:56.012Z,37.12
2018-09-29T11:16:25.337Z,37.39
2018-09-29T11:18:54.517Z,37.36
2018-09-29T11:21:23.614Z,37.48
2018-09-29T11:23:52.922Z,37.64
2018-09-29T11:26:22.028Z,37.75
2018-09-29T11:28:51.291Z,38.01
2018-09-29T11:31:20.401Z,38.06
2018-09-29T11:33:49.479Z,38.42
2018-09-29T11:36:18.590Z,38.14
2018-09-29T11:38:47.667Z,38.20
2018-09-29T11:41:16.807Z,37.91
2018-09-29T11:43:45.880Z,37.79
2018-09-29T11:46:14.979Z,37.99
2018-09-29T11:48:44.081Z,37.31
2018-09-29T11:51:13.183Z,37.74
2018-09-29T11:53:42.571Z,38.07
2018-09-29T11:56:11.745Z,37.70
2018-09-29T11:58:40.968Z,37.75
2018-09-29T12:01:10.068Z,37.60
2018-09-29T12:03:39.143Z,37.56
2018-09-29T12:06:08.407Z,37.67
2018-09-29T12:08:37.658Z,37.33
2018-09-29T12:11:06.766Z,37.00
2018-09-29T12:13:35.840Z,37.44
2018-09-29T12:16:04.928Z,37.22
2018-09-29T12:18:34.035Z,37.39
2018-09-29T12:21:03.187Z,36.98
2018-09-29T12:23:32.595Z,37.36
2018-09-29T12:26:01.663Z,37.31
2018-09-29T12:28:30.835Z,37.10
2018-09-29T12:30:59.957Z,37.48
2018-09-29T12:33:29.143Z,37.18
2018-09-29T12:35:58.319Z,36.98
2018-09-29T12:38:27.427Z,37.04
2018-09-29T12:40:56.535Z,37.37
2018-09-29T12:43:25.615Z,37.28
2018-09-29T12:45:54.712Z,36.99
2018-09-29T12:48:24.130Z,37.13
2018-09-29T12:50:53.337Z,37.08
2018-09-29T12:53:22.435Z,37.29
2018-09-29T12:55:51.629Z,37.16
2018-09-29T12:58:20.755Z,37.17
2018-09-29T13:00:50.013Z,37.14
2018-09-29T13:03:19.658Z,37.48
2018-09-29T13:05:48.984Z,37.77
2018-09-29T13:08:18.231Z,37.68
2018-09-29T13:10:47.323Z,37.18
2018-09-29T13:13:16.620Z,37.26
2018-09-29T13:15:45.703Z,37.03
2018-09-29T13:18:14.821Z,37.32
2018-09-29T13:20:43.875Z,37.12
2018-09-29T13:23:12.983Z,37.44
2018-09-29T13:25:42.103Z,37.11
2018-09-29T13:28:11.219Z,37.70
2018-09-29T13:30:40.385Z,36.76
2018-09-29T13:33:09.755Z,36.39
2018-09-29T13:35:38.899Z,36.55
2018-09-29T13:38:08.018Z,36.66
2018-09-29T13:40:37.099Z,36.72
2018-09-29T13:43:06.296Z,36.92
2018-09-29T13:45:35.375Z,36.95
2018-09-29T13:48:04.423Z,37.09
2018-09-29T13:50:33.672Z,36.84
2018-09-29T13:53:02.739Z,36.80
2018-09-29T13:55:31.802Z,36.61
2018-09-29T13:58:00.895Z,36.59
2018-09-29T14:00:30.045Z,36.65
2018-09-29T14:02:59.323Z,37.12
2018-09-29T14:05:28.432Z,36.71
2018-09-29T14:07:57.535Z,36.72
2018-09-29T14:10:26.810Z,36.11
2018-09-29T14:12:55.873Z,35.74
2018-09-29T14:15:25.031Z,35.35
2018-09-29T14:17:54.148Z,34.21
2018-09-29T14:20:23.274Z,33.85
2018-09-29T14:22:52.418Z,33.51
2018-09-29T14:25:21.552Z,33.17
2018-09-29T14:27:50.707Z,33.38
2018-09-29T14:30:19.947Z,33.49
2018-09-29T14:32:49.122Z,33.30
2018-09-29T14:35:18.316Z,33.11
2018-09-29T14:37:47.416Z,33.39
2018-09-29T14:40:16.612Z,33.49
2018-09-29T14:42:45.844Z,33.14
2018-09-29T14:45:14.954Z,33.25
2018-09-29T14:47:44.419Z,33.05
2018-09-29T14:50:13.517Z,33.55
2018-09-29T14:52:42.573Z,33.38
2018-09-29T14:55:11.814Z,33.60
2018-09-29T14:57:40.958Z,33.74
2018-09-29T15:00:10.292Z,33.74
2018-09-29T15:02:39.475Z,34.18
2018-09-29T15:05:08.576Z,33.52
2018-09-29T15:07:37.688Z,33.83
2018-09-29T15:10:06.936Z,33.63
2018-09-29T15:12:36.289Z,34.09
2018-09-29T15:15:06.595Z,34.17
2018-09-29T15:17:35.960Z,34.22
2018-09-29T15:20:05.068Z,34.15
2018-09-29T15:22:34.337Z,34.19
2018-09-29T15:25:03.430Z,33.74
2018-09-29T15:27:32.757Z,33.43
2018-09-29T15:30:01.904Z,33.45
2018-09-29T15:32:31.035Z,33.95
2018-09-29T15:35:00.213Z,33.92
2018-09-29T15:37:29.391Z,34.34
2018-09-29T15:39:58.808Z,33.95
2018-09-29T15:42:28.026Z,33.76
2018-09-29T15:44:57.355Z,34.14
2018-09-29T15:47:26.575Z,34.44
2018-09-29T15:49:55.678Z,34.48
2018-09-29T15:52:24.826Z,34.38
2018-09-29T15:54:54.084Z,34.29
2018-09-29T15:57:23.269Z,34.20
2018-09-29T15:59:52.383Z,34.01
2018-09-29T16:02:21.507Z,33.95
2018-09-29T16:04:50.770Z,33.91
2018-09-29T16:07:19.866Z,33.72
2018-09-29T16:09:49.141Z,33.21
2018-09-29T16:12:18.370Z,33.15
2018-09-29T16:14:47.480Z,33.22
2018-09-29T16:17:16.563Z,33.49
2018-09-29T16:19:45.728Z,33.89
2018-09-29T16:22:14.878Z,34.15
2018-09-29T16:24:43.944Z,33.45
2018-09-29T16:27:13.029Z,33.94
2018-09-29T16:29:42.161Z,33.64
2018-09-29T16:32:11.259Z,33.44
2018-09-29T16:34:40.352Z,33.90
2018-09-29T16:37:09.561Z,33.38
2018-09-29T16:39:38.720Z,33.55
2018-09-29T16:42:07.841Z,32.90
2018-09-29T16:44:36.961Z,33.39
2018-09-29T16:47:06.248Z,33.22
2018-09-29T16:49:35.494Z,33.42
2018-09-29T16:52:04.624Z,33.61
2018-09-29T16:54:33.714Z,33.63
2018-09-29T16:57:02.792Z,33.72
2018-09-29T16:59:31.985Z,33.53
2018-09-29T17:02:01.113Z,33.59
2018-09-29T17:04:30.677Z,33.53
2018-09-29T17:07:00.040Z,33.74
2018-09-29T17:09:29.235Z,33.25
2018-09-29T17:11:58.329Z,33.11
2018-09-29T17:14:27.431Z,33.34
2018-09-29T17:16:56.506Z,33.60
2018-09-29T17:19:25.576Z,33.16
2018-09-29T17:21:54.728Z,33.42
2018-09-29T17:24:23.991Z,33.37
2018-09-29T17:26:53.058Z,33.19
2018-09-29T17:29:22.188Z,33.36
2018-09-29T17:31:51.267Z,33.67
2018-09-29T17:34:20.678Z,33.80
2018-09-29T17:36:49.810Z,33.57
2018-09-29T17:39:18.837Z,33.68
2018-09-29T17:41:47.980Z,33.63
2018-09-29T17:44:17.169Z,33.84
2018-09-29T17:46:46.291Z,33.76
2018-09-29T17:49:15.323Z,33.85
2018-09-29T17:51:44.355Z,34.16
2018-09-29T17:54:13.476Z,34.13
2018-09-29T17:56:42.561Z,33.92
2018-09-29T17:59:11.771Z,34.08
2018-09-29T18:01:40.871Z,33.97
2018-09-29T18:04:10.165Z,34.69
2018-09-29T18:06:39.342Z,34.75
2018-09-29T18:09:10.440Z,35.08
2018-09-29T18:11:39.616Z,35.26
2018-09-29T18:14:08.670Z,35.45
2018-09-29T18:16:37.795Z,35.36
2018-09-29T18:19:06.892Z,35.43
2018-09-29T18:21:36.023Z,36.00
2018-09-29T18:24:05.269Z,36.61
2018-09-29T18:26:34.484Z,36.81
2018-09-29T18:29:03.653Z,37.26
2018-09-29T18:31:32.877Z,37.42
2018-09-29T18:34:01.976Z,37.62
2018-09-29T18:36:31.135Z,37.56
2018-09-29T18:39:00.263Z,37.67
2018-09-29T18:41:29.378Z,37.86
2018-09-29T18:43:58.594Z,37.67
2018-09-29T18:46:27.820Z,37.89
2018-09-29T18:48:56.922Z,37.69
2018-09-29T18:51:26.057Z,37.89
2018-09-29T18:53:55.151Z,37.96
2018-09-29T18:56:24.252Z,38.08
2018-09-29T18:58:54.610Z,37.92
2018-09-29T19:01:23.784Z,38.41
2018-09-29T19:03:52.846Z,38.71
2018-09-29T19:06:21.965Z,38.62
2018-09-29T19:08:51.044Z,38.86
2018-09-29T19:11:20.121Z,38.73
2018-09-29T19:13:49.240Z,39.36
2018-09-29T19:16:18.368Z,39.28
2018-09-29T19:18:47.491Z,39.67
2018-09-29T19:21:16.870Z,39.75
2018-09-29T19:23:46.048Z,39.34
2018-09-29T19:26:15.124Z,39.44
2018-09-29T19:28:44.431Z,39.22
2018-09-29T19:31:13.541Z,39.14
2018-09-29T19:33:42.631Z,39.51
2018-09-29T19:36:11.941Z,39.28
2018-09-29T19:38:41.066Z,39.07
2018-09-29T19:41:10.219Z,39.72
2018-09-29T19:43:39.325Z,39.51
2018-09-29T19:46:08.915Z,39.35
2018-09-29T19:48:38.119Z,39.89
2018-09-29T19:51:08.030Z,39.62
2018-09-29T19:53:37.328Z,39.70
2018-09-29T19:56:06.821Z,39.74
2018-09-29T19:58:36.264Z,39.48
2018-09-29T20:01:05.353Z,39.49
2018-09-29T20:03:34.490Z,39.60
2018-09-29T20:06:03.740Z,39.72
2018-09-29T20:08:32.980Z,39.94
2018-09-29T20:11:02.141Z,39.52
2018-09-29T20:13:31.449Z,40.11
2018-09-29T20:16:00.556Z,40.07
2018-09-29T20:18:29.789Z,40.18
2018-09-29T20:20:58.932Z,40.25
2018-09-29T20:23:28.019Z,40.24
2018-09-29T20:25:57.106Z,40.40
2018-09-29T20:28:26.207Z,40.00
2018-09-29T20:30:55.411Z,40.12
2018-09-29T20:33:24.511Z,40.15
2018-09-29T20:35:53.620Z,40.13
2018-09-29T20:38:22.787Z,40.26
2018-09-29T20:40:51.981Z,40.08
2018-09-29T20:43:21.100Z,40.04
2018-09-29T20:45:50.183Z,40.02
2018-09-29T20:48:19.469Z,40.16
2018-09-29T20:50:48.602Z,40.24
2018-09-29T20:53:17.757Z,40.15
2018-09-29T20:55:46.887Z,39.93
2018-09-29T20:58:15.967Z,40.04
2018-09-29T21:00:45.047Z,40.05
2018-09-29T21:03:15.855Z,40.34
2018-09-29T21:05:45.125Z,40.16
2018-09-29T21:08:14.264Z,40.08
2018-09-29T21:10:43.380Z,40.21
2018-09-29T21:13:12.574Z,40.30
2018-09-29T21:15:41.788Z,40.41
2018-09-29T21:18:10.967Z,40.10
2018-09-29T21:20:40.086Z,40.55
2018-09-29T21:23:09.196Z,40.37
2018-09-29T21:25:38.433Z,40.31
2018-09-29T21:28:07.604Z,40.77
2018-09-29T21:30:36.899Z,40.64
2018-09-29T21:33:05.631Z,40.75
2018-09-29T21:35:34.793Z,40.82
2018-09-29T21:38:03.987Z,40.34
2018-09-29T21:40:33.069Z,40.49
2018-09-29T21:43:02.173Z,41.03
2018-09-29T21:45:31.273Z,40.99
2018-09-29T21:48:00.384Z,40.76
2018-09-29T21:50:29.572Z,40.66
2018-09-29T21:52:58.760Z,40.59
2018-09-29T21:55:27.964Z,40.82
2018-09-29T21:57:57.162Z,40.72
2018-09-29T22:00:31.789Z,40.64
2018-09-29T22:03:00.941Z,40.83
2018-09-29T22:05:30.015Z,40.52
2018-09-29T22:07:59.179Z,40.50
2018-09-29T22:10:28.218Z,40.31
2018-09-29T22:12:57.359Z,40.08
2018-09-29T22:15:26.474Z,40.34
2018-09-29T22:17:55.656Z,40.47
2018-09-29T22:20:24.735Z,40.46
2018-09-29T22:22:54.121Z,40.60
2018-09-29T22:25:23.232Z,41.03
2018-09-29T22:27:52.451Z,41.54
2018-09-29T22:30:21.651Z,41.14
2018-09-29T22:32:57.243Z,41.02
2018-09-29T22:35:26.487Z,41.73
2018-09-29T22:37:55.690Z,41.78
2018-09-29T22:40:24.796Z,41.56
2018-09-29T22:42:53.978Z,41.61
2018-09-29T22:45:23.077Z,41.64
2018-09-29T22:47:52.404Z,41.91
2018-09-29T22:50:21.580Z,42.10
2018-09-29T22:52:50.728Z,42.05
2018-09-29T22:55:19.902Z,41.81
2018-09-29T22:57:49.092Z,42.42
2018-09-29T23:00:18.180Z,42.65
2018-09-29T23:02:47.268Z,42.85
2018-09-29T23:05:16.354Z,42.48
2018-09-29T23:07:45.568Z,42.65
2018-09-29T23:10:14.776Z,42.37
2018-09-29T23:12:43.944Z,42.46
2018-09-29T23:15:13.036Z,42.71
2018-09-29T23:17:42.123Z,42.76
2018-09-29T23:20:11.240Z,42.72
2018-09-29T23:22:40.456Z,42.40
2018-09-29T23:25:09.592Z,42.05
2018-09-29T23:27:38.723Z,42.17
2018-09-29T23:30:07.921Z,42.15
2018-09-29T23:32:37.018Z,42.21
2018-09-29T23:35:06.128Z,41.91
2018-09-29T23:37:35.300Z,42.06
2018-09-29T23:40:04.368Z,41.76
2018-09-29T23:42:33.538Z,42.00
2018-09-29T23:45:02.613Z,42.14
2018-09-29T23:47:31.675Z,42.10
2018-09-29T23:50:00.804Z,41.95
2018-09-29T23:52:29.888Z,41.78
2018-09-29T23:54:58.992Z,41.56
2018-09-29T23:57:28.060Z,41.78
2018-09-29T23:59:57.148Z,41.38
